sensor_id;sensor_type;location;lat;lon;timestamp;temperature;humidity
48998;DHT22;34807;51.456;7.244;2023-03-23T00:01:54;10.90;99.90
48998;DHT22;34807;51.456;7.244;2023-03-23T00:04:20;10.90;99.90
48998;DHT22;34807;51.456;7.244;2023-03-23T00:06:46;10.90;99.90
48998;DHT22;34807;51.456;7.244;2023-03-23T00:09:12;10.80;99.90
48998;DHT22;34807;51.456;7.244;2023-03-23T00:11:40;10.80;99.90
48998;DHT22;34807;51.456;7.244;2023-03-23T00:14:06;10.80;99.90
48998;DHT22;34807;51.456;7.244;2023-03-23T00:16:38;10.80;99.90
48998;DHT22;34807;51.456;7.244;2023-03-23T00:19:12;10.80;99.90
48998;DHT22;34807;51.456;7.244;2023-03-23T00:21:41;10.80;99.90
48998;DHT22;34807;51.456;7.244;2023-03-23T00:26:34;10.80;99.90
48998;DHT22;34807;51.456;7.244;2023-03-23T00:29:00;10.80;99.90
48998;DHT22;34807;51.456;7.244;2023-03-23T00:31:26;10.80;99.90
48998;DHT22;34807;51.456;7.244;2023-03-23T00:34:01;10.80;99.90
48998;DHT22;34807;51.456;7.244;2023-03-23T00:36:27;10.80;99.90
48998;DHT22;34807;51.456;7.244;2023-03-23T00:38:52;10.80;99.90
48998;DHT22;34807;51.456;7.244;2023-03-23T00:41:18;10.80;99.90
48998;DHT22;34807;51.456;7.244;2023-03-23T00:43:43;10.80;99.90
48998;DHT22;34807;51.456;7.244;2023-03-23T00:46:08;10.80;99.90
48998;DHT22;34807;51.456;7.244;2023-03-23T00:48:35;10.80;99.90
48998;DHT22;34807;51.456;7.244;2023-03-23T00:51:02;10.80;99.90
48998;DHT22;34807;51.456;7.244;2023-03-23T00:53:31;10.80;99.90
48998;DHT22;34807;51.456;7.244;2023-03-23T00:55:57;10.70;99.90
48998;DHT22;34807;51.456;7.244;2023-03-23T00:58:23;10.70;99.90
48998;DHT22;34807;51.456;7.244;2023-03-23T01:00:48;10.70;99.90
48998;DHT22;34807;51.456;7.244;2023-03-23T01:03:14;10.70;99.90
48998;DHT22;34807;51.456;7.244;2023-03-23T01:05:43;10.70;99.90
48998;DHT22;34807;51.456;7.244;2023-03-23T01:08:09;10.70;99.90
48998;DHT22;34807;51.456;7.244;2023-03-23T01:10:35;10.70;99.90
48998;DHT22;34807;51.456;7.244;2023-03-23T01:13:04;10.70;99.90
48998;DHT22;34807;51.456;7.244;2023-03-23T01:15:29;10.70;99.90
48998;DHT22;34807;51.456;7.244;2023-03-23T01:17:55;10.70;99.90
48998;DHT22;34807;51.456;7.244;2023-03-23T01:20:21;10.70;99.90
48998;DHT22;34807;51.456;7.244;2023-03-23T01:22:47;10.70;99.90
48998;DHT22;34807;51.456;7.244;2023-03-23T01:25:13;10.70;99.90
48998;DHT22;34807;51.456;7.244;2023-03-23T01:27:39;10.70;99.90
48998;DHT22;34807;51.456;7.244;2023-03-23T01:30:06;10.70;99.90
48998;DHT22;34807;51.456;7.244;2023-03-23T01:32:32;10.70;99.90
48998;DHT22;34807;51.456;7.244;2023-03-23T01:34:58;10.70;99.90
48998;DHT22;34807;51.456;7.244;2023-03-23T01:37:23;10.70;99.90
48998;DHT22;34807;51.456;7.244;2023-03-23T01:39:54;10.70;99.90
48998;DHT22;34807;51.456;7.244;2023-03-23T01:42:21;10.70;99.90
48998;DHT22;34807;51.456;7.244;2023-03-23T01:47:12;10.60;99.90
48998;DHT22;34807;51.456;7.244;2023-03-23T01:49:38;10.60;99.90
48998;DHT22;34807;51.456;7.244;2023-03-23T01:52:09;10.60;99.90
48998;DHT22;34807;51.456;7.244;2023-03-23T01:54:42;10.60;99.90
48998;DHT22;34807;51.456;7.244;2023-03-23T01:57:15;10.60;99.90
48998;DHT22;34807;51.456;7.244;2023-03-23T01:59:41;10.60;99.90
48998;DHT22;34807;51.456;7.244;2023-03-23T02:02:08;10.60;99.90
48998;DHT22;34807;51.456;7.244;2023-03-23T02:04:36;10.60;99.90
48998;DHT22;34807;51.456;7.244;2023-03-23T02:07:02;10.60;99.90
48998;DHT22;34807;51.456;7.244;2023-03-23T02:09:28;10.60;99.90
48998;DHT22;34807;51.456;7.244;2023-03-23T02:11:54;10.60;99.90
48998;DHT22;34807;51.456;7.244;2023-03-23T02:14:19;10.60;99.90
48998;DHT22;34807;51.456;7.244;2023-03-23T02:24:42;10.60;99.90
48998;DHT22;34807;51.456;7.244;2023-03-23T02:35:23;10.60;99.90
48998;DHT22;34807;51.456;7.244;2023-03-23T02:37:52;10.60;99.90
48998;DHT22;34807;51.456;7.244;2023-03-23T02:40:26;10.60;99.90
48998;DHT22;34807;51.456;7.244;2023-03-23T02:42:54;10.60;99.90
48998;DHT22;34807;51.456;7.244;2023-03-23T02:45:21;10.60;99.90
48998;DHT22;34807;51.456;7.244;2023-03-23T02:47:47;10.60;99.90
48998;DHT22;34807;51.456;7.244;2023-03-23T02:50:14;10.60;99.90
48998;DHT22;34807;51.456;7.244;2023-03-23T02:52:40;10.60;99.90
48998;DHT22;34807;51.456;7.244;2023-03-23T02:55:07;10.50;99.90
48998;DHT22;34807;51.456;7.244;2023-03-23T02:57:32;10.50;99.90
48998;DHT22;34807;51.456;7.244;2023-03-23T02:59:58;10.50;99.90
48998;DHT22;34807;51.456;7.244;2023-03-23T03:02:26;10.50;99.90
48998;DHT22;34807;51.456;7.244;2023-03-23T03:12:46;10.50;99.90
48998;DHT22;34807;51.456;7.244;2023-03-23T03:15:23;10.50;99.90
48998;DHT22;34807;51.456;7.244;2023-03-23T03:20:31;10.50;99.90
48998;DHT22;34807;51.456;7.244;2023-03-23T03:22:57;10.50;99.90
48998;DHT22;34807;51.456;7.244;2023-03-23T03:25:24;10.50;99.90
48998;DHT22;34807;51.456;7.244;2023-03-23T03:27:51;10.50;99.90
48998;DHT22;34807;51.456;7.244;2023-03-23T03:30:20;10.50;99.90
48998;DHT22;34807;51.456;7.244;2023-03-23T03:32:51;10.50;99.90
48998;DHT22;34807;51.456;7.244;2023-03-23T03:35:19;10.50;99.90
48998;DHT22;34807;51.456;7.244;2023-03-23T03:37:45;10.50;99.90
48998;DHT22;34807;51.456;7.244;2023-03-23T03:40:13;10.50;99.90
48998;DHT22;34807;51.456;7.244;2023-03-23T03:42:39;10.50;99.90
48998;DHT22;34807;51.456;7.244;2023-03-23T03:45:06;10.50;99.90
48998;DHT22;34807;51.456;7.244;2023-03-23T03:47:32;10.40;99.90
48998;DHT22;34807;51.456;7.244;2023-03-23T03:49:58;10.40;99.90
48998;DHT22;34807;51.456;7.244;2023-03-23T03:52:23;10.40;99.90
48998;DHT22;34807;51.456;7.244;2023-03-23T03:54:49;10.40;99.90
48998;DHT22;34807;51.456;7.244;2023-03-23T03:57:14;10.40;99.90
48998;DHT22;34807;51.456;7.244;2023-03-23T03:59:40;10.40;99.90
48998;DHT22;34807;51.456;7.244;2023-03-23T04:02:06;10.40;99.90
48998;DHT22;34807;51.456;7.244;2023-03-23T04:04:31;10.40;99.90
48998;DHT22;34807;51.456;7.244;2023-03-23T04:06:57;10.40;99.90
48998;DHT22;34807;51.456;7.244;2023-03-23T04:09:22;10.40;99.90
48998;DHT22;34807;51.456;7.244;2023-03-23T04:11:48;10.40;99.90
48998;DHT22;34807;51.456;7.244;2023-03-23T04:14:13;10.40;99.90
48998;DHT22;34807;51.456;7.244;2023-03-23T04:16:39;10.50;99.90
48998;DHT22;34807;51.456;7.244;2023-03-23T04:19:06;10.40;99.90
48998;DHT22;34807;51.456;7.244;2023-03-23T04:21:31;10.40;99.90
48998;DHT22;34807;51.456;7.244;2023-03-23T04:23:57;10.40;99.90
48998;DHT22;34807;51.456;7.244;2023-03-23T04:26:26;10.40;99.90
48998;DHT22;34807;51.456;7.244;2023-03-23T04:28:54;10.40;99.90
48998;DHT22;34807;51.456;7.244;2023-03-23T04:31:20;10.40;99.90
48998;DHT22;34807;51.456;7.244;2023-03-23T04:33:46;10.40;99.90
48998;DHT22;34807;51.456;7.244;2023-03-23T04:36:12;10.40;99.90
48998;DHT22;34807;51.456;7.244;2023-03-23T04:38:41;10.40;99.90
48998;DHT22;34807;51.456;7.244;2023-03-23T04:41:08;10.40;99.90
48998;DHT22;34807;51.456;7.244;2023-03-23T04:43:33;10.40;99.90
48998;DHT22;34807;51.456;7.244;2023-03-23T04:46:06;10.40;99.90
48998;DHT22;34807;51.456;7.244;2023-03-23T04:48:33;10.40;99.90
48998;DHT22;34807;51.456;7.244;2023-03-23T04:51:03;10.40;99.90
48998;DHT22;34807;51.456;7.244;2023-03-23T04:53:32;10.40;99.90
48998;DHT22;34807;51.456;7.244;2023-03-23T04:55:58;10.40;99.90
48998;DHT22;34807;51.456;7.244;2023-03-23T04:58:23;10.40;99.90
48998;DHT22;34807;51.456;7.244;2023-03-23T05:00:50;10.40;99.90
48998;DHT22;34807;51.456;7.244;2023-03-23T05:03:19;10.40;99.90
48998;DHT22;34807;51.456;7.244;2023-03-23T05:05:44;10.40;99.90
48998;DHT22;34807;51.456;7.244;2023-03-23T05:08:18;10.40;99.90
48998;DHT22;34807;51.456;7.244;2023-03-23T05:10:49;10.40;99.90
48998;DHT22;34807;51.456;7.244;2023-03-23T05:13:14;10.40;99.90
48998;DHT22;34807;51.456;7.244;2023-03-23T05:15:40;10.40;99.90
48998;DHT22;34807;51.456;7.244;2023-03-23T05:18:06;10.40;99.90
48998;DHT22;34807;51.456;7.244;2023-03-23T05:20:32;10.40;99.90
48998;DHT22;34807;51.456;7.244;2023-03-23T05:22:59;10.40;99.90
48998;DHT22;34807;51.456;7.244;2023-03-23T05:25:24;10.40;99.90
48998;DHT22;34807;51.456;7.244;2023-03-23T05:27:50;10.40;99.90
48998;DHT22;34807;51.456;7.244;2023-03-23T05:30:18;10.40;99.90
48998;DHT22;34807;51.456;7.244;2023-03-23T05:32:44;10.40;99.90
48998;DHT22;34807;51.456;7.244;2023-03-23T05:35:10;10.50;99.90
48998;DHT22;34807;51.456;7.244;2023-03-23T05:37:36;10.40;99.90
48998;DHT22;34807;51.456;7.244;2023-03-23T05:40:02;10.40;99.90
48998;DHT22;34807;51.456;7.244;2023-03-23T05:42:32;10.50;99.90
48998;DHT22;34807;51.456;7.244;2023-03-23T05:44:58;10.50;99.90
48998;DHT22;34807;51.456;7.244;2023-03-23T05:47:24;10.50;99.90
48998;DHT22;34807;51.456;7.244;2023-03-23T05:49:50;10.50;99.90
48998;DHT22;34807;51.456;7.244;2023-03-23T05:52:17;10.50;99.90
48998;DHT22;34807;51.456;7.244;2023-03-23T05:54:42;10.50;99.90
48998;DHT22;34807;51.456;7.244;2023-03-23T05:57:08;10.50;99.90
48998;DHT22;34807;51.456;7.244;2023-03-23T05:59:34;10.50;99.90
48998;DHT22;34807;51.456;7.244;2023-03-23T06:02:00;10.50;99.90
48998;DHT22;34807;51.456;7.244;2023-03-23T06:04:26;10.50;99.90
48998;DHT22;34807;51.456;7.244;2023-03-23T06:06:52;10.50;99.90
48998;DHT22;34807;51.456;7.244;2023-03-23T06:09:18;10.50;99.90
48998;DHT22;34807;51.456;7.244;2023-03-23T06:11:43;10.50;99.90
48998;DHT22;34807;51.456;7.244;2023-03-23T06:14:09;10.50;99.90
48998;DHT22;34807;51.456;7.244;2023-03-23T06:16:35;10.50;99.90
48998;DHT22;34807;51.456;7.244;2023-03-23T06:19:00;10.50;99.90
48998;DHT22;34807;51.456;7.244;2023-03-23T06:21:27;10.50;99.90
48998;DHT22;34807;51.456;7.244;2023-03-23T06:23:53;10.50;99.90
48998;DHT22;34807;51.456;7.244;2023-03-23T06:26:19;10.50;99.90
48998;DHT22;34807;51.456;7.244;2023-03-23T06:28:45;10.50;99.90
48998;DHT22;34807;51.456;7.244;2023-03-23T06:31:10;10.50;99.90
48998;DHT22;34807;51.456;7.244;2023-03-23T06:33:36;10.50;99.90
48998;DHT22;34807;51.456;7.244;2023-03-23T06:36:03;10.60;99.90
48998;DHT22;34807;51.456;7.244;2023-03-23T06:38:28;10.60;99.90
48998;DHT22;34807;51.456;7.244;2023-03-23T06:40:54;10.60;99.90
48998;DHT22;34807;51.456;7.244;2023-03-23T06:43:20;10.60;99.90
48998;DHT22;34807;51.456;7.244;2023-03-23T06:45:46;10.60;99.90
48998;DHT22;34807;51.456;7.244;2023-03-23T06:48:11;10.60;99.90
48998;DHT22;34807;51.456;7.244;2023-03-23T06:50:37;10.60;99.90
48998;DHT22;34807;51.456;7.244;2023-03-23T06:53:03;10.60;99.90
48998;DHT22;34807;51.456;7.244;2023-03-23T06:55:29;10.70;99.90
48998;DHT22;34807;51.456;7.244;2023-03-23T06:57:54;10.70;99.90
48998;DHT22;34807;51.456;7.244;2023-03-23T07:00:20;10.70;99.90
48998;DHT22;34807;51.456;7.244;2023-03-23T07:02:45;10.70;99.90
48998;DHT22;34807;51.456;7.244;2023-03-23T07:05:12;10.70;99.90
48998;DHT22;34807;51.456;7.244;2023-03-23T07:07:38;10.70;99.90
48998;DHT22;34807;51.456;7.244;2023-03-23T07:10:05;10.80;99.90
48998;DHT22;34807;51.456;7.244;2023-03-23T07:12:31;10.80;99.90
48998;DHT22;34807;51.456;7.244;2023-03-23T07:14:58;10.80;99.90
48998;DHT22;34807;51.456;7.244;2023-03-23T07:17:24;10.80;99.90
48998;DHT22;34807;51.456;7.244;2023-03-23T07:19:50;10.80;99.90
48998;DHT22;34807;51.456;7.244;2023-03-23T07:22:16;10.90;99.90
48998;DHT22;34807;51.456;7.244;2023-03-23T07:24:41;10.90;99.90
48998;DHT22;34807;51.456;7.244;2023-03-23T07:27:07;10.90;99.90
48998;DHT22;34807;51.456;7.244;2023-03-23T07:29:32;10.90;99.90
48998;DHT22;34807;51.456;7.244;2023-03-23T07:32:01;10.90;99.90
48998;DHT22;34807;51.456;7.244;2023-03-23T07:34:26;10.90;99.90
48998;DHT22;34807;51.456;7.244;2023-03-23T07:36:52;11.00;99.90
48998;DHT22;34807;51.456;7.244;2023-03-23T07:39:17;11.00;99.90
48998;DHT22;34807;51.456;7.244;2023-03-23T07:41:43;11.00;99.90
48998;DHT22;34807;51.456;7.244;2023-03-23T07:44:08;11.00;99.90
48998;DHT22;34807;51.456;7.244;2023-03-23T07:46:34;11.00;99.90
48998;DHT22;34807;51.456;7.244;2023-03-23T07:49:01;11.10;99.90
48998;DHT22;34807;51.456;7.244;2023-03-23T07:51:31;11.10;99.90
48998;DHT22;34807;51.456;7.244;2023-03-23T07:53:56;11.10;99.90
48998;DHT22;34807;51.456;7.244;2023-03-23T07:56:22;11.10;99.90
48998;DHT22;34807;51.456;7.244;2023-03-23T07:58:48;11.20;99.90
48998;DHT22;34807;51.456;7.244;2023-03-23T08:01:13;11.20;99.90
48998;DHT22;34807;51.456;7.244;2023-03-23T08:03:39;11.20;99.90
48998;DHT22;34807;51.456;7.244;2023-03-23T08:06:05;11.20;99.90
48998;DHT22;34807;51.456;7.244;2023-03-23T08:08:31;11.20;99.90
48998;DHT22;34807;51.456;7.244;2023-03-23T08:10:57;11.20;99.90
48998;DHT22;34807;51.456;7.244;2023-03-23T08:13:22;11.30;99.90
48998;DHT22;34807;51.456;7.244;2023-03-23T08:15:48;11.30;99.90
48998;DHT22;34807;51.456;7.244;2023-03-23T08:18:15;11.30;99.90
48998;DHT22;34807;51.456;7.244;2023-03-23T08:20:40;11.30;99.90
48998;DHT22;34807;51.456;7.244;2023-03-23T08:23:07;11.30;99.90
48998;DHT22;34807;51.456;7.244;2023-03-23T08:25:32;11.30;99.90
48998;DHT22;34807;51.456;7.244;2023-03-23T08:27:59;11.30;99.90
48998;DHT22;34807;51.456;7.244;2023-03-23T08:30:26;11.40;99.90
48998;DHT22;34807;51.456;7.244;2023-03-23T08:32:54;11.40;99.90
48998;DHT22;34807;51.456;7.244;2023-03-23T08:35:20;11.40;99.90
48998;DHT22;34807;51.456;7.244;2023-03-23T08:37:45;11.40;99.90
48998;DHT22;34807;51.456;7.244;2023-03-23T08:40:12;11.40;99.90
48998;DHT22;34807;51.456;7.244;2023-03-23T08:42:40;11.50;99.90
48998;DHT22;34807;51.456;7.244;2023-03-23T08:45:06;11.50;99.90
48998;DHT22;34807;51.456;7.244;2023-03-23T08:47:32;11.50;99.90
48998;DHT22;34807;51.456;7.244;2023-03-23T08:49:58;11.60;99.90
48998;DHT22;34807;51.456;7.244;2023-03-23T08:52:23;11.60;99.90
48998;DHT22;34807;51.456;7.244;2023-03-23T08:54:49;11.60;99.90
48998;DHT22;34807;51.456;7.244;2023-03-23T08:57:15;11.70;99.90
48998;DHT22;34807;51.456;7.244;2023-03-23T08:59:41;11.70;99.90
48998;DHT22;34807;51.456;7.244;2023-03-23T09:02:10;11.70;99.90
48998;DHT22;34807;51.456;7.244;2023-03-23T09:04:37;11.70;99.90
48998;DHT22;34807;51.456;7.244;2023-03-23T09:07:03;11.70;99.90
48998;DHT22;34807;51.456;7.244;2023-03-23T09:09:28;11.80;99.90
48998;DHT22;34807;51.456;7.244;2023-03-23T09:11:54;11.80;99.80
48998;DHT22;34807;51.456;7.244;2023-03-23T09:14:20;11.90;99.80
48998;DHT22;34807;51.456;7.244;2023-03-23T09:16:45;11.90;99.80
48998;DHT22;34807;51.456;7.244;2023-03-23T09:19:11;11.90;99.80
48998;DHT22;34807;51.456;7.244;2023-03-23T09:21:37;11.90;99.80
48998;DHT22;34807;51.456;7.244;2023-03-23T09:24:03;11.90;99.70
48998;DHT22;34807;51.456;7.244;2023-03-23T09:26:30;11.90;99.80
48998;DHT22;34807;51.456;7.244;2023-03-23T09:28:55;11.90;99.80
48998;DHT22;34807;51.456;7.244;2023-03-23T09:31:22;11.90;99.80
48998;DHT22;34807;51.456;7.244;2023-03-23T09:33:47;11.90;99.80
48998;DHT22;34807;51.456;7.244;2023-03-23T09:36:17;12.00;99.80
48998;DHT22;34807;51.456;7.244;2023-03-23T09:38:43;11.90;99.80
48998;DHT22;34807;51.456;7.244;2023-03-23T09:43:58;12.00;99.80
48998;DHT22;34807;51.456;7.244;2023-03-23T09:49:01;12.00;99.80
48998;DHT22;34807;51.456;7.244;2023-03-23T09:53:58;12.10;99.80
48998;DHT22;34807;51.456;7.244;2023-03-23T09:56:25;12.10;99.80
48998;DHT22;34807;51.456;7.244;2023-03-23T10:03:46;12.10;99.70
48998;DHT22;34807;51.456;7.244;2023-03-23T10:06:14;12.10;99.70
48998;DHT22;34807;51.456;7.244;2023-03-23T10:08:47;12.10;99.80
48998;DHT22;34807;51.456;7.244;2023-03-23T10:16:07;12.10;99.80
48998;DHT22;34807;51.456;7.244;2023-03-23T10:18:38;12.10;99.80
48998;DHT22;34807;51.456;7.244;2023-03-23T10:21:06;12.10;99.90
48998;DHT22;34807;51.456;7.244;2023-03-23T10:28:43;12.00;99.90
48998;DHT22;34807;51.456;7.244;2023-03-23T10:34:24;12.00;99.90
48998;DHT22;34807;51.456;7.244;2023-03-23T10:36:59;11.90;99.90
48998;DHT22;34807;51.456;7.244;2023-03-23T10:40:11;11.90;99.90
48998;DHT22;34807;51.456;7.244;2023-03-23T10:42:24;11.90;99.90
48998;DHT22;34807;51.456;7.244;2023-03-23T10:44:50;11.90;99.90
48998;DHT22;34807;51.456;7.244;2023-03-23T10:47:16;11.90;99.90
48998;DHT22;34807;51.456;7.244;2023-03-23T10:49:53;11.90;99.90
48998;DHT22;34807;51.456;7.244;2023-03-23T10:57:33;11.90;99.90
48998;DHT22;34807;51.456;7.244;2023-03-23T11:02:42;11.80;99.90
48998;DHT22;34807;51.456;7.244;2023-03-23T11:05:21;11.80;99.90
48998;DHT22;34807;51.456;7.244;2023-03-23T11:07:50;11.80;99.90
48998;DHT22;34807;51.456;7.244;2023-03-23T11:10:21;11.90;99.90
48998;DHT22;34807;51.456;7.244;2023-03-23T11:12:47;11.90;99.90
48998;DHT22;34807;51.456;7.244;2023-03-23T11:17:57;11.90;99.90
48998;DHT22;34807;51.456;7.244;2023-03-23T11:20:24;11.80;99.90
48998;DHT22;34807;51.456;7.244;2023-03-23T11:22:49;11.80;99.90
48998;DHT22;34807;51.456;7.244;2023-03-23T11:25:15;11.80;99.90
48998;DHT22;34807;51.456;7.244;2023-03-23T11:27:40;11.80;99.90
48998;DHT22;34807;51.456;7.244;2023-03-23T11:32:34;11.80;99.90
48998;DHT22;34807;51.456;7.244;2023-03-23T11:35:02;11.70;99.90
48998;DHT22;34807;51.456;7.244;2023-03-23T11:37:33;11.70;99.90
48998;DHT22;34807;51.456;7.244;2023-03-23T11:40:14;11.70;99.90
48998;DHT22;34807;51.456;7.244;2023-03-23T11:42:44;11.70;99.90
48998;DHT22;34807;51.456;7.244;2023-03-23T11:47:59;11.70;99.90
48998;DHT22;34807;51.456;7.244;2023-03-23T11:50:30;11.70;99.90
48998;DHT22;34807;51.456;7.244;2023-03-23T11:53:02;11.70;99.90
48998;DHT22;34807;51.456;7.244;2023-03-23T11:58:00;11.70;99.90
48998;DHT22;34807;51.456;7.244;2023-03-23T12:00:27;11.60;99.90
48998;DHT22;34807;51.456;7.244;2023-03-23T12:16:32;11.70;99.90
48998;DHT22;34807;51.456;7.244;2023-03-23T12:21:28;11.80;99.90
48998;DHT22;34807;51.456;7.244;2023-03-23T12:26:25;11.80;99.90
48998;DHT22;34807;51.456;7.244;2023-03-23T12:34:06;11.80;99.90
48998;DHT22;34807;51.456;7.244;2023-03-23T12:39:05;11.80;99.90
48998;DHT22;34807;51.456;7.244;2023-03-23T12:41:41;11.80;99.90
48998;DHT22;34807;51.456;7.244;2023-03-23T12:44:12;11.70;99.90
48998;DHT22;34807;51.456;7.244;2023-03-23T13:02:13;11.70;99.90
48998;DHT22;34807;51.456;7.244;2023-03-23T13:04:40;11.70;99.90
48998;DHT22;34807;51.456;7.244;2023-03-23T13:07:12;11.70;99.90
48998;DHT22;34807;51.456;7.244;2023-03-23T13:09:50;11.80;99.90
48998;DHT22;34807;51.456;7.244;2023-03-23T13:12:17;11.70;99.90
48998;DHT22;34807;51.456;7.244;2023-03-23T13:22:21;11.80;99.90
48998;DHT22;34807;51.456;7.244;2023-03-23T13:24:54;11.80;99.90
48998;DHT22;34807;51.456;7.244;2023-03-23T13:27:27;11.80;99.90
48998;DHT22;34807;51.456;7.244;2023-03-23T13:29:54;11.80;99.90
48998;DHT22;34807;51.456;7.244;2023-03-23T13:32:20;11.80;99.90
48998;DHT22;34807;51.456;7.244;2023-03-23T13:34:48;11.80;99.90
48998;DHT22;34807;51.456;7.244;2023-03-23T13:37:26;11.80;99.90
48998;DHT22;34807;51.456;7.244;2023-03-23T13:39:53;11.90;99.90
48998;DHT22;34807;51.456;7.244;2023-03-23T13:42:30;11.90;99.90
48998;DHT22;34807;51.456;7.244;2023-03-23T13:47:41;12.00;99.90
48998;DHT22;34807;51.456;7.244;2023-03-23T14:05:42;12.10;99.90
48998;DHT22;34807;51.456;7.244;2023-03-23T14:10:35;12.10;99.90
48998;DHT22;34807;51.456;7.244;2023-03-23T14:13:01;12.10;99.90
48998;DHT22;34807;51.456;7.244;2023-03-23T14:15:28;12.10;99.90
48998;DHT22;34807;51.456;7.244;2023-03-23T14:17:53;12.10;99.90
48998;DHT22;34807;51.456;7.244;2023-03-23T14:20:26;12.10;99.90
48998;DHT22;34807;51.456;7.244;2023-03-23T14:22:55;12.20;99.90
48998;DHT22;34807;51.456;7.244;2023-03-23T14:25:21;12.20;99.90
48998;DHT22;34807;51.456;7.244;2023-03-23T14:27:50;12.30;99.90
48998;DHT22;34807;51.456;7.244;2023-03-23T14:30:18;12.30;99.90
48998;DHT22;34807;51.456;7.244;2023-03-23T14:32:44;12.30;99.90
48998;DHT22;34807;51.456;7.244;2023-03-23T14:37:39;12.40;99.90
48998;DHT22;34807;51.456;7.244;2023-03-23T14:40:04;12.40;99.90
48998;DHT22;34807;51.456;7.244;2023-03-23T14:42:34;12.40;99.90
48998;DHT22;34807;51.456;7.244;2023-03-23T14:45:00;12.50;99.90
48998;DHT22;34807;51.456;7.244;2023-03-23T14:47:31;12.50;99.90
48998;DHT22;34807;51.456;7.244;2023-03-23T14:49:58;12.60;99.90
48998;DHT22;34807;51.456;7.244;2023-03-23T14:52:25;12.60;99.90
48998;DHT22;34807;51.456;7.244;2023-03-23T14:54:51;12.70;99.90
48998;DHT22;34807;51.456;7.244;2023-03-23T14:59:46;12.90;99.90
48998;DHT22;34807;51.456;7.244;2023-03-23T15:02:13;12.90;99.90
48998;DHT22;34807;51.456;7.244;2023-03-23T15:04:40;12.90;99.90
48998;DHT22;34807;51.456;7.244;2023-03-23T15:07:06;13.00;99.90
48998;DHT22;34807;51.456;7.244;2023-03-23T15:09:32;13.00;99.90
48998;DHT22;34807;51.456;7.244;2023-03-23T15:12:00;12.90;99.90
48998;DHT22;34807;51.456;7.244;2023-03-23T15:14:34;12.90;99.90
48998;DHT22;34807;51.456;7.244;2023-03-23T15:17:02;12.90;99.90
48998;DHT22;34807;51.456;7.244;2023-03-23T15:19:32;12.90;99.90
48998;DHT22;34807;51.456;7.244;2023-03-23T15:22:05;12.90;99.90
48998;DHT22;34807;51.456;7.244;2023-03-23T15:24:36;12.90;99.90
48998;DHT22;34807;51.456;7.244;2023-03-23T15:27:13;13.10;99.90
48998;DHT22;34807;51.456;7.244;2023-03-23T15:29:45;13.30;99.90
48998;DHT22;34807;51.456;7.244;2023-03-23T15:32:11;13.40;99.60
48998;DHT22;34807;51.456;7.244;2023-03-23T15:34:36;13.50;99.70
48998;DHT22;34807;51.456;7.244;2023-03-23T15:37:16;13.70;99.40
48998;DHT22;34807;51.456;7.244;2023-03-23T15:39:44;13.90;98.90
48998;DHT22;34807;51.456;7.244;2023-03-23T15:42:19;14.10;98.70
48998;DHT22;34807;51.456;7.244;2023-03-23T15:44:54;14.10;98.50
48998;DHT22;34807;51.456;7.244;2023-03-23T15:47:20;14.30;98.50
48998;DHT22;34807;51.456;7.244;2023-03-23T15:49:47;14.30;98.40
48998;DHT22;34807;51.456;7.244;2023-03-23T15:52:23;14.50;98.00
48998;DHT22;34807;51.456;7.244;2023-03-23T15:54:48;14.60;97.90
48998;DHT22;34807;51.456;7.244;2023-03-23T15:57:14;14.60;98.00
48998;DHT22;34807;51.456;7.244;2023-03-23T15:59:39;14.80;97.90
48998;DHT22;34807;51.456;7.244;2023-03-23T16:02:05;14.90;97.60
48998;DHT22;34807;51.456;7.244;2023-03-23T16:04:31;15.00;97.50
48998;DHT22;34807;51.456;7.244;2023-03-23T16:06:57;15.00;97.40
48998;DHT22;34807;51.456;7.244;2023-03-23T16:09:24;15.10;97.40
48998;DHT22;34807;51.456;7.244;2023-03-23T16:11:50;15.20;97.30
48998;DHT22;34807;51.456;7.244;2023-03-23T16:14:16;15.20;97.50
48998;DHT22;34807;51.456;7.244;2023-03-23T16:16:43;15.20;97.50
48998;DHT22;34807;51.456;7.244;2023-03-23T16:19:10;15.30;97.40
48998;DHT22;34807;51.456;7.244;2023-03-23T16:21:36;15.40;97.40
48998;DHT22;34807;51.456;7.244;2023-03-23T16:24:02;15.30;97.30
48998;DHT22;34807;51.456;7.244;2023-03-23T16:26:27;15.20;97.40
48998;DHT22;34807;51.456;7.244;2023-03-23T16:28:53;15.20;97.60
48998;DHT22;34807;51.456;7.244;2023-03-23T16:31:18;15.10;97.80
48998;DHT22;34807;51.456;7.244;2023-03-23T16:33:44;15.10;98.00
48998;DHT22;34807;51.456;7.244;2023-03-23T16:36:13;15.00;98.00
48998;DHT22;34807;51.456;7.244;2023-03-23T16:38:39;15.00;98.20
48998;DHT22;34807;51.456;7.244;2023-03-23T16:41:04;14.90;98.10
48998;DHT22;34807;51.456;7.244;2023-03-23T16:43:30;14.90;98.30
48998;DHT22;34807;51.456;7.244;2023-03-23T16:45:56;14.80;98.40
48998;DHT22;34807;51.456;7.244;2023-03-23T16:48:21;14.80;98.50
48998;DHT22;34807;51.456;7.244;2023-03-23T16:50:47;14.70;98.70
48998;DHT22;34807;51.456;7.244;2023-03-23T16:53:12;14.60;98.80
48998;DHT22;34807;51.456;7.244;2023-03-23T16:55:38;14.50;99.00
48998;DHT22;34807;51.456;7.244;2023-03-23T16:58:04;14.40;99.20
48998;DHT22;34807;51.456;7.244;2023-03-23T17:00:30;14.40;99.40
48998;DHT22;34807;51.456;7.244;2023-03-23T17:02:56;14.30;99.50
48998;DHT22;34807;51.456;7.244;2023-03-23T17:05:23;14.20;99.60
48998;DHT22;34807;51.456;7.244;2023-03-23T17:07:50;14.20;99.70
48998;DHT22;34807;51.456;7.244;2023-03-23T17:10:16;14.10;99.80
48998;DHT22;34807;51.456;7.244;2023-03-23T17:12:42;14.10;99.90
48998;DHT22;34807;51.456;7.244;2023-03-23T17:15:08;14.00;99.90
48998;DHT22;34807;51.456;7.244;2023-03-23T17:17:34;13.90;99.90
48998;DHT22;34807;51.456;7.244;2023-03-23T17:20:00;13.90;99.90
48998;DHT22;34807;51.456;7.244;2023-03-23T17:22:26;13.80;99.90
48998;DHT22;34807;51.456;7.244;2023-03-23T17:24:52;13.70;99.90
48998;DHT22;34807;51.456;7.244;2023-03-23T17:27:18;13.70;99.90
48998;DHT22;34807;51.456;7.244;2023-03-23T17:29:44;13.70;99.90
48998;DHT22;34807;51.456;7.244;2023-03-23T17:32:10;13.60;99.90
48998;DHT22;34807;51.456;7.244;2023-03-23T17:34:36;13.50;99.90
48998;DHT22;34807;51.456;7.244;2023-03-23T17:37:01;13.50;99.90
48998;DHT22;34807;51.456;7.244;2023-03-23T17:39:27;13.40;99.90
48998;DHT22;34807;51.456;7.244;2023-03-23T17:41:53;13.30;99.90
48998;DHT22;34807;51.456;7.244;2023-03-23T17:44:18;13.30;99.90
48998;DHT22;34807;51.456;7.244;2023-03-23T17:46:44;13.30;99.90
48998;DHT22;34807;51.456;7.244;2023-03-23T17:49:10;13.20;99.90
48998;DHT22;34807;51.456;7.244;2023-03-23T17:51:35;13.20;99.90
48998;DHT22;34807;51.456;7.244;2023-03-23T17:54:01;13.20;99.90
48998;DHT22;34807;51.456;7.244;2023-03-23T17:56:26;13.10;99.90
48998;DHT22;34807;51.456;7.244;2023-03-23T17:58:52;13.10;99.90
48998;DHT22;34807;51.456;7.244;2023-03-23T18:01:18;13.00;99.90